AAR8232 RKPC-RKTU
Flight info
| Callsign | AAR8232 |
|---|---|
| Flight time | 0h 45m |
| Altitude | 23000 |
| Route | KAMIT2E KAMIT Y722 OLMEN |
| Aircraft | A321/M-SDE3FGHIRWY/LB1 |
Departure
| Time | 2026-04-26 08:42 |
|---|---|
| Airport | Jeju International Airport (RKPC) |
Arrival
| Time | 2026-04-26 09:28 |
|---|---|
| Airport | Cheongju International Airport/Cheongju Air Base (K-59/G-513) (RKTU) |
| Time | Latitude | Longitude | Altitude | Speed | Heading |
|---|---|---|---|---|---|
| 2026-04-26 08:15 | 33.50674 | 126.49124 | 96 ft | 0 kts | 148° |
| 2026-04-26 08:30 | 33.50680 | 126.49120 | 96 ft | 2 kts | 147° |
| 2026-04-26 08:31 | 33.50692 | 126.49110 | 96 ft | 2 kts | 148° |
| 2026-04-26 08:31 | 33.50706 | 126.49101 | 96 ft | 2 kts | 148° |
| 2026-04-26 08:31 | 33.50718 | 126.49092 | 96 ft | 2 kts | 148° |
| 2026-04-26 08:31 | 33.50731 | 126.49082 | 96 ft | 2 kts | 148° |
| 2026-04-26 08:32 | 33.50744 | 126.49073 | 96 ft | 2 kts | 148° |
| 2026-04-26 08:32 | 33.50758 | 126.49071 | 95 ft | 2 kts | 203° |
| 2026-04-26 08:32 | 33.50767 | 126.49078 | 95 ft | 0 kts | 236° |
| 2026-04-26 08:32 | 33.50771 | 126.49086 | 95 ft | 0 kts | 238° |
| 2026-04-26 08:35 | 33.50770 | 126.49085 | 95 ft | 0 kts | 238° |
| 2026-04-26 08:36 | 33.50765 | 126.49075 | 95 ft | 2 kts | 238° |
| 2026-04-26 08:36 | 33.50754 | 126.49053 | 95 ft | 3 kts | 238° |
| 2026-04-26 08:36 | 33.50743 | 126.49033 | 95 ft | 0 kts | 237° |
| 2026-04-26 08:36 | 33.50736 | 126.49020 | 95 ft | 3 kts | 237° |
| 2026-04-26 08:37 | 33.50719 | 126.48988 | 95 ft | 5 kts | 238° |
| 2026-04-26 08:37 | 33.50698 | 126.48945 | 95 ft | 6 kts | 244° |
| 2026-04-26 08:37 | 33.50720 | 126.48897 | 94 ft | 8 kts | 331° |
| 2026-04-26 08:37 | 33.50780 | 126.48857 | 94 ft | 10 kts | 331° |
| 2026-04-26 08:38 | 33.50805 | 126.48806 | 93 ft | 7 kts | 249° |
| 2026-04-26 08:38 | 33.50775 | 126.48747 | 93 ft | 9 kts | 237° |
| 2026-04-26 08:38 | 33.50740 | 126.48679 | 93 ft | 10 kts | 238° |
| 2026-04-26 08:38 | 33.50700 | 126.48601 | 93 ft | 11 kts | 238° |
| 2026-04-26 08:39 | 33.50658 | 126.48518 | 93 ft | 12 kts | 238° |
| 2026-04-26 08:39 | 33.50611 | 126.48427 | 93 ft | 13 kts | 238° |
| 2026-04-26 08:39 | 33.50561 | 126.48330 | 93 ft | 14 kts | 238° |
| 2026-04-26 08:39 | 33.50509 | 126.48226 | 93 ft | 14 kts | 238° |
| 2026-04-26 08:40 | 33.50455 | 126.48122 | 93 ft | 15 kts | 239° |
| 2026-04-26 08:40 | 33.50398 | 126.48013 | 93 ft | 15 kts | 238° |
| 2026-04-26 08:40 | 33.50340 | 126.47900 | 93 ft | 15 kts | 238° |
| 2026-04-26 08:40 | 33.50312 | 126.47825 | 93 ft | 8 kts | 274° |
| 2026-04-26 08:41 | 33.50356 | 126.47769 | 91 ft | 12 kts | 327° |
| 2026-04-26 08:41 | 33.50421 | 126.47720 | 87 ft | 6 kts | 333° |
| 2026-04-26 08:41 | 33.50441 | 126.47729 | 87 ft | 0 kts | 60° |
| 2026-04-26 08:41 | 33.50449 | 126.47744 | 87 ft | 12 kts | 58° |
| 2026-04-26 08:42 | 33.50635 | 126.48106 | 87 ft | 88 kts | 58° |
| 2026-04-26 08:42 | 33.51082 | 126.48975 | 87 ft | 152 kts | 57° |
| 2026-04-26 08:42 | 33.51670 | 126.50105 | 537 ft | 165 kts | 57° |
| 2026-04-26 08:42 | 33.52256 | 126.51218 | 1367 ft | 154 kts | 52° |
| 2026-04-26 08:43 | 33.52945 | 126.52125 | 2066 ft | 145 kts | 41° |
| 2026-04-26 08:43 | 33.53679 | 126.52929 | 2461 ft | 145 kts | 40° |
| 2026-04-26 08:43 | 33.54438 | 126.53741 | 2822 ft | 147 kts | 40° |
| 2026-04-26 08:43 | 33.55193 | 126.54558 | 3213 ft | 147 kts | 40° |
| 2026-04-26 08:44 | 33.55957 | 126.55393 | 3526 ft | 155 kts | 41° |
| 2026-04-26 08:44 | 33.56791 | 126.56309 | 3799 ft | 168 kts | 41° |
| 2026-04-26 08:44 | 33.57681 | 126.57289 | 4094 ft | 182 kts | 41° |
| 2026-04-26 08:44 | 33.58656 | 126.58367 | 4406 ft | 198 kts | 41° |
| 2026-04-26 08:45 | 33.59713 | 126.59538 | 4733 ft | 214 kts | 41° |
| 2026-04-26 08:45 | 33.60848 | 126.60796 | 5026 ft | 234 kts | 41° |
| 2026-04-26 08:45 | 33.62101 | 126.62187 | 5357 ft | 255 kts | 41° |
| 2026-04-26 08:45 | 33.63434 | 126.63670 | 5850 ft | 270 kts | 41° |
| 2026-04-26 08:46 | 33.64830 | 126.65224 | 6630 ft | 275 kts | 42° |
| 2026-04-26 08:46 | 33.66238 | 126.66792 | 7457 ft | 278 kts | 42° |
| 2026-04-26 08:46 | 33.67646 | 126.68362 | 8239 ft | 281 kts | 41° |
| 2026-04-26 08:46 | 33.69095 | 126.69961 | 9014 ft | 284 kts | 38° |
| 2026-04-26 08:47 | 33.70776 | 126.71172 | 9743 ft | 285 kts | 19° |
| 2026-04-26 08:47 | 33.72694 | 126.71679 | 10441 ft | 287 kts | 5° |
| 2026-04-26 08:47 | 33.74746 | 126.71903 | 10841 ft | 302 kts | 3° |
| 2026-04-26 08:47 | 33.76894 | 126.72100 | 11161 ft | 320 kts | 2° |
| 2026-04-26 08:48 | 33.79171 | 126.72316 | 11560 ft | 333 kts | 3° |
| 2026-04-26 08:48 | 33.81494 | 126.72549 | 12206 ft | 338 kts | 2° |
| 2026-04-26 08:48 | 33.83848 | 126.72790 | 12900 ft | 341 kts | 2° |
| 2026-04-26 08:48 | 33.86225 | 126.73036 | 13552 ft | 344 kts | 2° |
| 2026-04-26 08:49 | 33.88625 | 126.73286 | 14197 ft | 348 kts | 2° |
| 2026-04-26 08:49 | 33.91051 | 126.73540 | 14842 ft | 351 kts | 2° |
| 2026-04-26 08:49 | 33.93489 | 126.73795 | 15463 ft | 354 kts | 2° |
| 2026-04-26 08:49 | 33.95926 | 126.74052 | 16085 ft | 357 kts | 2° |
| 2026-04-26 08:50 | 33.98425 | 126.74313 | 16688 ft | 360 kts | 2° |
| 2026-04-26 08:50 | 34.00940 | 126.74578 | 17272 ft | 364 kts | 2° |
| 2026-04-26 08:50 | 34.03450 | 126.74844 | 17843 ft | 366 kts | 2° |
| 2026-04-26 08:50 | 34.06015 | 126.75117 | 18437 ft | 369 kts | 2° |
| 2026-04-26 08:51 | 34.11150 | 126.75661 | 19555 ft | 373 kts | 2° |
| 2026-04-26 08:51 | 34.13742 | 126.75934 | 20091 ft | 376 kts | 2° |
| 2026-04-26 08:51 | 34.16361 | 126.76210 | 20603 ft | 379 kts | 2° |
| 2026-04-26 08:52 | 34.18995 | 126.76488 | 21115 ft | 381 kts | 2° |
| 2026-04-26 08:52 | 34.21667 | 126.76771 | 21611 ft | 384 kts | 2° |
| 2026-04-26 08:52 | 34.24334 | 126.77055 | 22073 ft | 387 kts | 1° |
| 2026-04-26 08:52 | 34.27069 | 126.77344 | 22559 ft | 390 kts | 2° |
| 2026-04-26 08:53 | 34.29792 | 126.77634 | 22883 ft | 392 kts | 2° |
| 2026-04-26 08:53 | 34.32495 | 126.77923 | 22927 ft | 393 kts | 2° |
| 2026-04-26 08:53 | 34.35220 | 126.78214 | 22930 ft | 392 kts | 2° |
| 2026-04-26 08:53 | 34.37933 | 126.78504 | 22929 ft | 392 kts | 2° |
| 2026-04-26 08:54 | 34.40687 | 126.78796 | 22930 ft | 392 kts | 2° |
| 2026-04-26 08:54 | 34.43382 | 126.79083 | 22932 ft | 392 kts | 2° |
| 2026-04-26 08:54 | 34.46129 | 126.79376 | 22929 ft | 393 kts | 2° |
| 2026-04-26 08:54 | 34.48833 | 126.79664 | 22932 ft | 393 kts | 2° |
| 2026-04-26 08:55 | 34.51583 | 126.79959 | 22929 ft | 393 kts | 2° |
| 2026-04-26 08:55 | 34.54285 | 126.80246 | 22928 ft | 392 kts | 2° |
| 2026-04-26 08:55 | 34.57045 | 126.80541 | 22931 ft | 393 kts | 2° |
| 2026-04-26 08:55 | 34.59744 | 126.80830 | 22936 ft | 393 kts | 2° |
| 2026-04-26 08:56 | 34.62482 | 126.81123 | 22939 ft | 393 kts | 2° |
| 2026-04-26 08:56 | 34.65222 | 126.81416 | 22938 ft | 394 kts | 2° |
| 2026-04-26 08:56 | 34.67972 | 126.81711 | 22939 ft | 393 kts | 2° |
| 2026-04-26 08:56 | 34.70698 | 126.82004 | 22938 ft | 393 kts | 2° |
| 2026-04-26 08:57 | 34.73432 | 126.82297 | 22937 ft | 393 kts | 2° |
| 2026-04-26 08:57 | 34.76172 | 126.82591 | 22935 ft | 393 kts | 2° |
| 2026-04-26 08:57 | 34.78898 | 126.82883 | 22935 ft | 393 kts | 2° |
| 2026-04-26 08:57 | 34.81619 | 126.83174 | 22937 ft | 394 kts | 2° |
| 2026-04-26 08:58 | 34.84362 | 126.83469 | 22934 ft | 394 kts | 2° |
| 2026-04-26 08:58 | 34.87113 | 126.83765 | 22935 ft | 394 kts | 2° |
| 2026-04-26 08:58 | 34.89819 | 126.84056 | 22938 ft | 394 kts | 2° |
| 2026-04-26 08:58 | 34.92597 | 126.84355 | 22934 ft | 394 kts | 2° |
| 2026-04-26 08:59 | 34.95314 | 126.84648 | 22934 ft | 394 kts | 2° |
| 2026-04-26 08:59 | 34.98082 | 126.84946 | 22935 ft | 394 kts | 2° |
| 2026-04-26 08:59 | 35.00787 | 126.85238 | 22934 ft | 394 kts | 2° |
| 2026-04-26 08:59 | 35.03542 | 126.85533 | 22936 ft | 394 kts | 2° |
| 2026-04-26 09:00 | 35.06285 | 126.85830 | 22933 ft | 394 kts | 2° |
| 2026-04-26 09:00 | 35.09032 | 126.86128 | 22933 ft | 394 kts | 2° |
| 2026-04-26 09:00 | 35.11759 | 126.86423 | 22934 ft | 394 kts | 2° |
| 2026-04-26 09:00 | 35.14486 | 126.86718 | 22936 ft | 394 kts | 2° |
| 2026-04-26 09:01 | 35.17242 | 126.87020 | 22935 ft | 395 kts | 2° |
| 2026-04-26 09:01 | 35.19976 | 126.87319 | 22936 ft | 395 kts | 2° |
| 2026-04-26 09:01 | 35.22738 | 126.87619 | 22935 ft | 395 kts | 2° |
| 2026-04-26 09:01 | 35.25461 | 126.87914 | 22935 ft | 396 kts | 2° |
| 2026-04-26 09:02 | 35.28217 | 126.88213 | 22925 ft | 396 kts | 2° |
| 2026-04-26 09:02 | 35.30950 | 126.88510 | 22918 ft | 396 kts | 2° |
| 2026-04-26 09:02 | 35.33682 | 126.88808 | 22915 ft | 396 kts | 2° |
| 2026-04-26 09:02 | 35.36435 | 126.89108 | 22920 ft | 395 kts | 2° |
| 2026-04-26 09:03 | 35.39166 | 126.89404 | 22923 ft | 396 kts | 2° |
| 2026-04-26 09:03 | 35.41929 | 126.89704 | 22930 ft | 396 kts | 2° |
| 2026-04-26 09:03 | 35.44676 | 126.90005 | 22936 ft | 396 kts | 2° |
| 2026-04-26 09:03 | 35.47426 | 126.90305 | 22937 ft | 396 kts | 2° |
| 2026-04-26 09:04 | 35.50179 | 126.90605 | 22940 ft | 397 kts | 2° |
| 2026-04-26 09:04 | 35.52923 | 126.90906 | 22941 ft | 397 kts | 2° |
| 2026-04-26 09:04 | 35.55680 | 126.91209 | 22941 ft | 397 kts | 2° |
| 2026-04-26 09:04 | 35.58454 | 126.91513 | 22937 ft | 397 kts | 2° |
| 2026-04-26 09:05 | 35.61176 | 126.91811 | 22939 ft | 397 kts | 2° |
| 2026-04-26 09:05 | 35.63967 | 126.92118 | 22932 ft | 397 kts | 2° |
| 2026-04-26 09:05 | 35.66708 | 126.92417 | 22935 ft | 397 kts | 2° |
| 2026-04-26 09:05 | 35.69499 | 126.92723 | 22943 ft | 398 kts | 2° |
| 2026-04-26 09:06 | 35.72255 | 126.93026 | 22939 ft | 398 kts | 2° |
| 2026-04-26 09:06 | 35.75015 | 126.93328 | 22932 ft | 398 kts | 2° |
| 2026-04-26 09:06 | 35.77773 | 126.93632 | 22931 ft | 398 kts | 2° |
| 2026-04-26 09:06 | 35.80555 | 126.93936 | 22925 ft | 399 kts | 2° |
| 2026-04-26 09:07 | 35.83320 | 126.94241 | 22936 ft | 399 kts | 2° |
| 2026-04-26 09:07 | 35.86085 | 126.94544 | 22937 ft | 399 kts | 2° |
| 2026-04-26 09:07 | 35.88869 | 126.94852 | 22935 ft | 400 kts | 2° |
| 2026-04-26 09:07 | 35.91658 | 126.95159 | 22933 ft | 399 kts | 2° |
| 2026-04-26 09:08 | 35.94423 | 126.95467 | 22932 ft | 399 kts | 1° |
| 2026-04-26 09:08 | 35.97175 | 126.95773 | 22930 ft | 398 kts | 2° |
| 2026-04-26 09:08 | 35.99931 | 126.96078 | 22938 ft | 398 kts | 1° |
| 2026-04-26 09:08 | 36.02693 | 126.96383 | 22934 ft | 398 kts | 2° |
| 2026-04-26 09:09 | 36.05474 | 126.96692 | 22932 ft | 398 kts | 1° |
| 2026-04-26 09:09 | 36.08226 | 126.96996 | 22927 ft | 398 kts | 2° |
| 2026-04-26 09:09 | 36.10999 | 126.97302 | 22931 ft | 398 kts | 2° |
| 2026-04-26 09:09 | 36.13757 | 126.97608 | 22928 ft | 398 kts | 2° |
| 2026-04-26 09:10 | 36.16544 | 126.97916 | 22931 ft | 399 kts | 2° |
| 2026-04-26 09:10 | 36.19311 | 126.98224 | 22931 ft | 399 kts | 2° |
| 2026-04-26 09:10 | 36.22086 | 126.98533 | 22891 ft | 397 kts | 2° |
| 2026-04-26 09:10 | 36.24844 | 126.98840 | 22362 ft | 399 kts | 2° |
| 2026-04-26 09:11 | 36.27634 | 126.99149 | 21414 ft | 407 kts | 2° |
| 2026-04-26 09:11 | 36.30459 | 126.99461 | 20450 ft | 415 kts | 2° |
| 2026-04-26 09:11 | 36.33344 | 126.99783 | 19757 ft | 414 kts | 2° |
| 2026-04-26 09:11 | 36.36203 | 127.00104 | 19230 ft | 410 kts | 2° |
| 2026-04-26 09:12 | 36.39027 | 127.00297 | 18699 ft | 404 kts | 359° |
| 2026-04-26 09:12 | 36.41799 | 127.00280 | 18146 ft | 400 kts | 356° |
| 2026-04-26 09:12 | 36.44580 | 127.00186 | 17598 ft | 396 kts | 356° |
| 2026-04-26 09:12 | 36.47354 | 127.00075 | 17033 ft | 393 kts | 356° |
| 2026-04-26 09:13 | 36.50075 | 126.99967 | 16472 ft | 390 kts | 356° |
| 2026-04-26 09:13 | 36.52786 | 126.99862 | 15919 ft | 387 kts | 356° |
| 2026-04-26 09:13 | 36.55429 | 126.99764 | 15388 ft | 383 kts | 356° |
| 2026-04-26 09:13 | 36.58124 | 126.99667 | 14859 ft | 380 kts | 356° |
| 2026-04-26 09:14 | 36.60717 | 126.99574 | 14352 ft | 376 kts | 356° |
| 2026-04-26 09:14 | 36.63353 | 126.99480 | 13812 ft | 372 kts | 356° |
| 2026-04-26 09:14 | 36.65901 | 126.99390 | 13319 ft | 369 kts | 356° |
| 2026-04-26 09:14 | 36.68475 | 126.99297 | 12799 ft | 366 kts | 357° |
| 2026-04-26 09:15 | 36.71017 | 126.99438 | 12180 ft | 367 kts | 10° |
| 2026-04-26 09:15 | 36.73335 | 127.00763 | 11545 ft | 371 kts | 36° |
| 2026-04-26 09:15 | 36.74979 | 127.03245 | 11118 ft | 367 kts | 61° |
| 2026-04-26 09:15 | 36.75862 | 127.06199 | 10779 ft | 361 kts | 71° |
| 2026-04-26 09:16 | 36.76641 | 127.09151 | 10429 ft | 354 kts | 70° |
| 2026-04-26 09:16 | 36.77423 | 127.12045 | 10172 ft | 344 kts | 70° |
| 2026-04-26 09:16 | 36.78179 | 127.14782 | 10162 ft | 328 kts | 70° |
| 2026-04-26 09:16 | 36.78914 | 127.17417 | 10128 ft | 312 kts | 69° |
| 2026-04-26 09:17 | 36.79615 | 127.19913 | 10021 ft | 299 kts | 69° |
| 2026-04-26 09:17 | 36.80303 | 127.22350 | 9764 ft | 294 kts | 69° |
| 2026-04-26 09:17 | 36.80978 | 127.24734 | 9496 ft | 288 kts | 70° |
| 2026-04-26 09:17 | 36.81630 | 127.27049 | 9091 ft | 284 kts | 69° |
| 2026-04-26 09:18 | 36.82286 | 127.29372 | 8601 ft | 282 kts | 69° |
| 2026-04-26 09:18 | 36.82943 | 127.31704 | 8141 ft | 281 kts | 69° |
| 2026-04-26 09:18 | 36.83546 | 127.33987 | 7587 ft | 277 kts | 74° |
| 2026-04-26 09:18 | 36.83906 | 127.36317 | 7126 ft | 270 kts | 82° |
| 2026-04-26 09:19 | 36.84066 | 127.38648 | 7007 ft | 262 kts | 84° |
| 2026-04-26 09:19 | 36.84197 | 127.40951 | 7023 ft | 259 kts | 83° |
| 2026-04-26 09:19 | 36.84614 | 127.43128 | 7016 ft | 256 kts | 65° |
| 2026-04-26 09:19 | 36.85546 | 127.45071 | 7009 ft | 270 kts | 52° |
| 2026-04-26 09:20 | 36.86698 | 127.46945 | 6893 ft | 274 kts | 51° |
| 2026-04-26 09:20 | 36.87880 | 127.48824 | 6638 ft | 272 kts | 50° |
| 2026-04-26 09:20 | 36.89069 | 127.50723 | 6397 ft | 272 kts | 51° |
| 2026-04-26 09:20 | 36.90219 | 127.52575 | 6172 ft | 271 kts | 51° |
| 2026-04-26 09:21 | 36.91379 | 127.54456 | 6015 ft | 269 kts | 51° |
| 2026-04-26 09:21 | 36.92547 | 127.56358 | 6004 ft | 270 kts | 51° |
| 2026-04-26 09:21 | 36.93680 | 127.58204 | 5987 ft | 268 kts | 51° |
| 2026-04-26 09:21 | 36.94776 | 127.60035 | 5983 ft | 254 kts | 56° |
| 2026-04-26 09:22 | 36.95285 | 127.62063 | 5959 ft | 244 kts | 91° |
| 2026-04-26 09:22 | 36.94741 | 127.64038 | 5729 ft | 248 kts | 126° |
| 2026-04-26 09:22 | 36.93429 | 127.65447 | 5369 ft | 250 kts | 145° |
| 2026-04-26 09:22 | 36.91979 | 127.66708 | 5016 ft | 252 kts | 144° |
| 2026-04-26 09:23 | 36.90554 | 127.68000 | 4696 ft | 254 kts | 143° |
| 2026-04-26 09:23 | 36.89135 | 127.69325 | 4371 ft | 256 kts | 142° |
| 2026-04-26 09:23 | 36.87718 | 127.70663 | 4044 ft | 254 kts | 144° |
| 2026-04-26 09:23 | 36.86150 | 127.71597 | 3652 ft | 253 kts | 174° |
| 2026-04-26 09:24 | 36.84470 | 127.71220 | 3394 ft | 243 kts | 214° |
| 2026-04-26 09:24 | 36.83382 | 127.69727 | 3256 ft | 228 kts | 244° |
| 2026-04-26 09:24 | 36.82654 | 127.67991 | 3111 ft | 223 kts | 244° |
| 2026-04-26 09:24 | 36.81848 | 127.66342 | 2946 ft | 221 kts | 240° |
| 2026-04-26 09:25 | 36.80968 | 127.64769 | 2768 ft | 217 kts | 237° |
| 2026-04-26 09:25 | 36.80058 | 127.63269 | 2525 ft | 217 kts | 236° |
| 2026-04-26 09:25 | 36.79123 | 127.61774 | 2252 ft | 219 kts | 236° |
| 2026-04-26 09:25 | 36.78214 | 127.60323 | 2059 ft | 205 kts | 236° |
| 2026-04-26 09:26 | 36.77362 | 127.58955 | 1753 ft | 195 kts | 237° |
| 2026-04-26 09:26 | 36.76554 | 127.57650 | 1508 ft | 183 kts | 237° |
| 2026-04-26 09:26 | 36.75801 | 127.56434 | 1242 ft | 174 kts | 236° |
| 2026-04-26 09:26 | 36.75075 | 127.55262 | 1006 ft | 165 kts | 236° |
| 2026-04-26 09:27 | 36.74394 | 127.54165 | 794 ft | 154 kts | 237° |
| 2026-04-26 09:27 | 36.73748 | 127.53120 | 621 ft | 155 kts | 236° |
| 2026-04-26 09:27 | 36.73090 | 127.52062 | 424 ft | 153 kts | 236° |
| 2026-04-26 09:27 | 36.72445 | 127.51009 | 226 ft | 149 kts | 236° |
| 2026-04-26 09:28 | 36.71851 | 127.50041 | 196 ft | 127 kts | 231° |
| 2026-04-26 09:28 | 36.71422 | 127.49352 | 196 ft | 67 kts | 233° |
| 2026-04-26 09:28 | 36.71268 | 127.49128 | 196 ft | 23 kts | 239° |
| 2026-04-26 09:28 | 36.71182 | 127.48967 | 196 ft | 21 kts | 231° |
| 2026-04-26 09:29 | 36.71090 | 127.48817 | 196 ft | 21 kts | 233° |
| 2026-04-26 09:29 | 36.71030 | 127.48711 | 196 ft | 10 kts | 256° |
| 2026-04-26 09:29 | 36.71068 | 127.48637 | 196 ft | 11 kts | 323° |
| 2026-04-26 09:29 | 36.71122 | 127.48589 | 196 ft | 6 kts | 334° |
| 2026-04-26 09:30 | 36.71163 | 127.48605 | 196 ft | 6 kts | 38° |
| 2026-04-26 09:30 | 36.71196 | 127.48653 | 196 ft | 7 kts | 53° |
| 2026-04-26 09:30 | 36.71232 | 127.48710 | 196 ft | 8 kts | 52° |
| 2026-04-26 09:30 | 36.71273 | 127.48772 | 196 ft | 9 kts | 51° |
| 2026-04-26 09:31 | 36.71316 | 127.48843 | 196 ft | 10 kts | 55° |
| 2026-04-26 09:31 | 36.71363 | 127.48920 | 196 ft | 11 kts | 53° |
| 2026-04-26 09:31 | 36.71413 | 127.49002 | 196 ft | 12 kts | 53° |
| 2026-04-26 09:31 | 36.71466 | 127.49088 | 196 ft | 12 kts | 53° |
| 2026-04-26 09:32 | 36.71523 | 127.49181 | 196 ft | 13 kts | 52° |
| 2026-04-26 09:32 | 36.71581 | 127.49274 | 196 ft | 13 kts | 54° |
| 2026-04-26 09:32 | 36.71641 | 127.49371 | 196 ft | 14 kts | 53° |
| 2026-04-26 09:32 | 36.71699 | 127.49466 | 196 ft | 13 kts | 53° |
| 2026-04-26 09:33 | 36.71755 | 127.49554 | 196 ft | 12 kts | 52° |
| 2026-04-26 09:33 | 36.71808 | 127.49641 | 196 ft | 12 kts | 52° |
| 2026-04-26 09:33 | 36.71859 | 127.49722 | 196 ft | 11 kts | 52° |
| 2026-04-26 09:33 | 36.71919 | 127.49768 | 196 ft | 10 kts | 342° |
| 2026-04-26 09:34 | 36.71978 | 127.49718 | 196 ft | 10 kts | 323° |
| 2026-04-26 09:34 | 36.72033 | 127.49669 | 196 ft | 9 kts | 327° |
| 2026-04-26 09:34 | 36.72087 | 127.49622 | 196 ft | 9 kts | 322° |
| 2026-04-26 09:34 | 36.72098 | 127.49612 | 196 ft | 0 kts | 322° |